sensor_id;sensor_type;location;lat;lon;timestamp;temperature;humidity
15121;DHT22;7661;48.904;9.414;2023-06-22T00:00:54;21.60;99.90
15121;DHT22;7661;48.904;9.414;2023-06-22T00:03:22;21.60;99.90
15121;DHT22;7661;48.904;9.414;2023-06-22T00:05:51;21.50;99.90
15121;DHT22;7661;48.904;9.414;2023-06-22T00:08:19;21.50;99.90
15121;DHT22;7661;48.904;9.414;2023-06-22T00:10:46;21.50;99.90
15121;DHT22;7661;48.904;9.414;2023-06-22T00:13:14;21.40;99.90
15121;DHT22;7661;48.904;9.414;2023-06-22T00:15:44;21.40;99.90
15121;DHT22;7661;48.904;9.414;2023-06-22T00:18:11;21.30;99.90
15121;DHT22;7661;48.904;9.414;2023-06-22T00:20:39;21.30;99.90
15121;DHT22;7661;48.904;9.414;2023-06-22T00:23:07;21.30;99.90
15121;DHT22;7661;48.904;9.414;2023-06-22T00:25:34;21.30;99.90
15121;DHT22;7661;48.904;9.414;2023-06-22T00:28:02;21.30;99.90
15121;DHT22;7661;48.904;9.414;2023-06-22T00:30:30;21.20;99.90
15121;DHT22;7661;48.904;9.414;2023-06-22T00:32:59;21.20;99.90
15121;DHT22;7661;48.904;9.414;2023-06-22T00:35:27;21.20;99.90
15121;DHT22;7661;48.904;9.414;2023-06-22T00:37:55;21.20;99.90
15121;DHT22;7661;48.904;9.414;2023-06-22T00:40:26;21.20;99.90
15121;DHT22;7661;48.904;9.414;2023-06-22T00:42:54;21.10;99.90
15121;DHT22;7661;48.904;9.414;2023-06-22T00:45:21;21.10;99.90
15121;DHT22;7661;48.904;9.414;2023-06-22T00:47:50;21.10;99.90
15121;DHT22;7661;48.904;9.414;2023-06-22T00:50:20;21.10;99.90
15121;DHT22;7661;48.904;9.414;2023-06-22T00:52:51;21.00;99.90
15121;DHT22;7661;48.904;9.414;2023-06-22T00:55:19;21.00;99.90
15121;DHT22;7661;48.904;9.414;2023-06-22T00:57:47;21.00;99.90
15121;DHT22;7661;48.904;9.414;2023-06-22T01:00:15;21.00;99.90
15121;DHT22;7661;48.904;9.414;2023-06-22T01:02:45;21.00;99.90
15121;DHT22;7661;48.904;9.414;2023-06-22T01:05:16;20.90;99.90
15121;DHT22;7661;48.904;9.414;2023-06-22T01:07:56;20.90;99.90
15121;DHT22;7661;48.904;9.414;2023-06-22T01:10:31;20.90;99.90
15121;DHT22;7661;48.904;9.414;2023-06-22T01:13:07;20.80;99.90
15121;DHT22;7661;48.904;9.414;2023-06-22T01:15:41;20.80;99.90
15121;DHT22;7661;48.904;9.414;2023-06-22T01:18:09;20.70;99.90
15121;DHT22;7661;48.904;9.414;2023-06-22T01:20:38;20.70;99.90
15121;DHT22;7661;48.904;9.414;2023-06-22T01:23:18;20.70;99.90
15121;DHT22;7661;48.904;9.414;2023-06-22T01:25:53;20.60;99.90
15121;DHT22;7661;48.904;9.414;2023-06-22T01:28:41;20.50;99.90
15121;DHT22;7661;48.904;9.414;2023-06-22T01:31:10;20.50;99.90
15121;DHT22;7661;48.904;9.414;2023-06-22T01:33:41;20.50;99.90
15121;DHT22;7661;48.904;9.414;2023-06-22T01:36:10;20.50;99.90
15121;DHT22;7661;48.904;9.414;2023-06-22T01:38:39;20.50;99.90
15121;DHT22;7661;48.904;9.414;2023-06-22T01:41:06;20.40;99.90
15121;DHT22;7661;48.904;9.414;2023-06-22T01:43:36;20.40;99.90
15121;DHT22;7661;48.904;9.414;2023-06-22T01:46:04;20.40;99.90
15121;DHT22;7661;48.904;9.414;2023-06-22T01:48:31;20.40;99.90
15121;DHT22;7661;48.904;9.414;2023-06-22T01:50:59;20.40;99.90
15121;DHT22;7661;48.904;9.414;2023-06-22T01:53:26;20.40;99.90
15121;DHT22;7661;48.904;9.414;2023-06-22T01:55:53;20.30;99.90
15121;DHT22;7661;48.904;9.414;2023-06-22T01:58:21;20.40;99.90
15121;DHT22;7661;48.904;9.414;2023-06-22T02:00:55;20.30;99.90
15121;DHT22;7661;48.904;9.414;2023-06-22T02:03:27;20.30;99.90
15121;DHT22;7661;48.904;9.414;2023-06-22T02:06:01;20.20;99.90
15121;DHT22;7661;48.904;9.414;2023-06-22T02:08:32;20.20;99.90
15121;DHT22;7661;48.904;9.414;2023-06-22T02:11:03;20.20;99.90
15121;DHT22;7661;48.904;9.414;2023-06-22T02:13:31;20.20;99.90
15121;DHT22;7661;48.904;9.414;2023-06-22T02:16:00;20.10;99.90
15121;DHT22;7661;48.904;9.414;2023-06-22T02:18:28;20.10;99.90
15121;DHT22;7661;48.904;9.414;2023-06-22T02:20:55;20.10;99.90
15121;DHT22;7661;48.904;9.414;2023-06-22T02:23:22;20.10;99.90
15121;DHT22;7661;48.904;9.414;2023-06-22T02:25:49;20.10;99.90
15121;DHT22;7661;48.904;9.414;2023-06-22T02:28:17;20.10;99.90
15121;DHT22;7661;48.904;9.414;2023-06-22T02:30:44;20.10;99.90
15121;DHT22;7661;48.904;9.414;2023-06-22T02:33:12;20.10;99.90
15121;DHT22;7661;48.904;9.414;2023-06-22T02:35:39;20.10;99.90
15121;DHT22;7661;48.904;9.414;2023-06-22T02:38:11;20.10;99.90
15121;DHT22;7661;48.904;9.414;2023-06-22T02:40:38;20.00;99.90
15121;DHT22;7661;48.904;9.414;2023-06-22T02:43:05;20.00;99.90
15121;DHT22;7661;48.904;9.414;2023-06-22T02:45:32;20.00;99.90
15121;DHT22;7661;48.904;9.414;2023-06-22T02:47:59;20.00;99.90
15121;DHT22;7661;48.904;9.414;2023-06-22T02:50:28;20.00;99.90
15121;DHT22;7661;48.904;9.414;2023-06-22T02:52:55;20.00;99.90
15121;DHT22;7661;48.904;9.414;2023-06-22T02:55:24;20.00;99.90
15121;DHT22;7661;48.904;9.414;2023-06-22T02:57:51;20.00;99.90
15121;DHT22;7661;48.904;9.414;2023-06-22T03:00:19;19.90;99.90
15121;DHT22;7661;48.904;9.414;2023-06-22T03:02:48;19.80;99.90
15121;DHT22;7661;48.904;9.414;2023-06-22T03:05:15;19.80;99.90
15121;DHT22;7661;48.904;9.414;2023-06-22T03:07:45;19.80;99.90
15121;DHT22;7661;48.904;9.414;2023-06-22T03:10:14;19.80;99.90
15121;DHT22;7661;48.904;9.414;2023-06-22T03:12:41;19.80;99.90
15121;DHT22;7661;48.904;9.414;2023-06-22T03:15:11;19.80;99.90
15121;DHT22;7661;48.904;9.414;2023-06-22T03:17:39;19.80;99.90
15121;DHT22;7661;48.904;9.414;2023-06-22T03:20:08;19.70;99.90
15121;DHT22;7661;48.904;9.414;2023-06-22T03:22:36;19.70;99.90
15121;DHT22;7661;48.904;9.414;2023-06-22T03:25:06;19.70;99.90
15121;DHT22;7661;48.904;9.414;2023-06-22T03:27:36;19.70;99.90
15121;DHT22;7661;48.904;9.414;2023-06-22T03:30:04;19.60;99.90
15121;DHT22;7661;48.904;9.414;2023-06-22T03:32:32;19.60;99.90
15121;DHT22;7661;48.904;9.414;2023-06-22T03:34:59;19.60;99.90
15121;DHT22;7661;48.904;9.414;2023-06-22T03:37:26;19.50;99.90
15121;DHT22;7661;48.904;9.414;2023-06-22T03:39:54;19.50;99.90
15121;DHT22;7661;48.904;9.414;2023-06-22T03:42:22;19.50;99.90
15121;DHT22;7661;48.904;9.414;2023-06-22T03:44:50;19.50;99.90
15121;DHT22;7661;48.904;9.414;2023-06-22T03:47:17;19.50;99.90
15121;DHT22;7661;48.904;9.414;2023-06-22T03:49:44;19.50;99.90
15121;DHT22;7661;48.904;9.414;2023-06-22T03:52:11;19.60;99.90
15121;DHT22;7661;48.904;9.414;2023-06-22T03:54:38;19.60;99.90
15121;DHT22;7661;48.904;9.414;2023-06-22T03:57:06;19.60;99.90
15121;DHT22;7661;48.904;9.414;2023-06-22T03:59:34;19.70;99.90
15121;DHT22;7661;48.904;9.414;2023-06-22T04:02:02;19.70;99.90
15121;DHT22;7661;48.904;9.414;2023-06-22T04:04:30;19.70;99.90
15121;DHT22;7661;48.904;9.414;2023-06-22T04:06:57;19.70;99.90
15121;DHT22;7661;48.904;9.414;2023-06-22T04:09:24;19.80;99.90
15121;DHT22;7661;48.904;9.414;2023-06-22T04:11:51;19.80;99.90
15121;DHT22;7661;48.904;9.414;2023-06-22T04:14:18;19.80;99.90
15121;DHT22;7661;48.904;9.414;2023-06-22T04:16:47;19.80;99.90
15121;DHT22;7661;48.904;9.414;2023-06-22T04:19:14;20.00;99.90
15121;DHT22;7661;48.904;9.414;2023-06-22T04:21:43;20.00;99.90
15121;DHT22;7661;48.904;9.414;2023-06-22T04:24:11;20.00;99.90
15121;DHT22;7661;48.904;9.414;2023-06-22T04:26:38;20.00;99.90
15121;DHT22;7661;48.904;9.414;2023-06-22T04:29:07;20.10;99.90
15121;DHT22;7661;48.904;9.414;2023-06-22T04:31:34;20.10;99.90
15121;DHT22;7661;48.904;9.414;2023-06-22T04:34:05;20.10;99.90
15121;DHT22;7661;48.904;9.414;2023-06-22T04:36:34;20.10;99.90
15121;DHT22;7661;48.904;9.414;2023-06-22T04:39:05;20.20;99.90
15121;DHT22;7661;48.904;9.414;2023-06-22T04:41:35;20.20;99.90
15121;DHT22;7661;48.904;9.414;2023-06-22T04:44:09;20.30;99.90
15121;DHT22;7661;48.904;9.414;2023-06-22T04:46:37;20.30;99.90
15121;DHT22;7661;48.904;9.414;2023-06-22T04:49:09;20.40;99.90
15121;DHT22;7661;48.904;9.414;2023-06-22T04:51:40;20.50;99.90
15121;DHT22;7661;48.904;9.414;2023-06-22T04:54:09;20.50;99.90
15121;DHT22;7661;48.904;9.414;2023-06-22T04:56:36;20.50;99.90
15121;DHT22;7661;48.904;9.414;2023-06-22T04:59:07;20.60;99.90
15121;DHT22;7661;48.904;9.414;2023-06-22T05:01:38;20.60;99.90
15121;DHT22;7661;48.904;9.414;2023-06-22T05:04:05;20.70;99.90
15121;DHT22;7661;48.904;9.414;2023-06-22T05:06:34;20.70;99.90
15121;DHT22;7661;48.904;9.414;2023-06-22T05:09:01;20.80;99.90
15121;DHT22;7661;48.904;9.414;2023-06-22T05:11:30;20.80;99.90
15121;DHT22;7661;48.904;9.414;2023-06-22T05:13:58;20.90;99.90
15121;DHT22;7661;48.904;9.414;2023-06-22T05:16:25;21.00;99.90
15121;DHT22;7661;48.904;9.414;2023-06-22T05:18:52;21.00;99.90
15121;DHT22;7661;48.904;9.414;2023-06-22T05:21:24;21.00;99.90
15121;DHT22;7661;48.904;9.414;2023-06-22T05:23:53;21.10;99.90
15121;DHT22;7661;48.904;9.414;2023-06-22T05:26:22;21.20;99.90
15121;DHT22;7661;48.904;9.414;2023-06-22T05:28:49;21.30;99.90
15121;DHT22;7661;48.904;9.414;2023-06-22T05:31:17;21.30;99.90
15121;DHT22;7661;48.904;9.414;2023-06-22T05:33:46;21.40;99.90
15121;DHT22;7661;48.904;9.414;2023-06-22T05:36:13;21.50;99.90
15121;DHT22;7661;48.904;9.414;2023-06-22T05:38:41;21.50;99.90
15121;DHT22;7661;48.904;9.414;2023-06-22T05:41:10;21.60;99.90
15121;DHT22;7661;48.904;9.414;2023-06-22T05:43:37;21.70;99.90
15121;DHT22;7661;48.904;9.414;2023-06-22T05:46:04;21.70;99.90
15121;DHT22;7661;48.904;9.414;2023-06-22T05:48:31;21.80;99.90
15121;DHT22;7661;48.904;9.414;2023-06-22T05:50:59;21.90;99.90
15121;DHT22;7661;48.904;9.414;2023-06-22T05:53:26;22.00;99.90
15121;DHT22;7661;48.904;9.414;2023-06-22T05:55:53;22.10;99.90
15121;DHT22;7661;48.904;9.414;2023-06-22T05:58:22;22.20;99.90
15121;DHT22;7661;48.904;9.414;2023-06-22T06:00:49;22.30;99.90
15121;DHT22;7661;48.904;9.414;2023-06-22T06:03:16;22.40;99.90
15121;DHT22;7661;48.904;9.414;2023-06-22T06:05:44;22.50;99.90
15121;DHT22;7661;48.904;9.414;2023-06-22T06:08:11;22.60;99.90
15121;DHT22;7661;48.904;9.414;2023-06-22T06:10:39;22.70;99.90
15121;DHT22;7661;48.904;9.414;2023-06-22T06:13:06;22.70;99.90
15121;DHT22;7661;48.904;9.414;2023-06-22T06:15:35;22.70;99.90
15121;DHT22;7661;48.904;9.414;2023-06-22T06:18:02;22.80;99.90
15121;DHT22;7661;48.904;9.414;2023-06-22T06:20:31;22.90;99.90
15121;DHT22;7661;48.904;9.414;2023-06-22T06:22:59;22.90;99.90
15121;DHT22;7661;48.904;9.414;2023-06-22T06:25:26;22.90;99.90
15121;DHT22;7661;48.904;9.414;2023-06-22T06:27:53;22.90;99.90
15121;DHT22;7661;48.904;9.414;2023-06-22T06:30:21;22.90;99.90
15121;DHT22;7661;48.904;9.414;2023-06-22T06:32:50;23.00;99.90
15121;DHT22;7661;48.904;9.414;2023-06-22T06:35:18;23.00;99.90
15121;DHT22;7661;48.904;9.414;2023-06-22T06:37:48;23.00;99.90
15121;DHT22;7661;48.904;9.414;2023-06-22T06:40:16;23.00;99.90
15121;DHT22;7661;48.904;9.414;2023-06-22T06:42:46;23.00;99.90
15121;DHT22;7661;48.904;9.414;2023-06-22T06:45:16;23.10;99.90
15121;DHT22;7661;48.904;9.414;2023-06-22T06:47:43;23.20;99.90
15121;DHT22;7661;48.904;9.414;2023-06-22T06:50:12;23.30;99.90
15121;DHT22;7661;48.904;9.414;2023-06-22T06:52:39;23.50;99.90
15121;DHT22;7661;48.904;9.414;2023-06-22T06:55:08;23.60;99.90
15121;DHT22;7661;48.904;9.414;2023-06-22T06:57:37;23.70;99.90
15121;DHT22;7661;48.904;9.414;2023-06-22T07:00:06;23.80;99.90
15121;DHT22;7661;48.904;9.414;2023-06-22T07:02:37;24.00;99.90
15121;DHT22;7661;48.904;9.414;2023-06-22T07:05:05;24.10;99.90
15121;DHT22;7661;48.904;9.414;2023-06-22T07:07:34;24.30;99.90
15121;DHT22;7661;48.904;9.414;2023-06-22T07:10:01;24.40;99.90
15121;DHT22;7661;48.904;9.414;2023-06-22T07:12:29;24.50;99.90
15121;DHT22;7661;48.904;9.414;2023-06-22T07:15:01;24.60;99.90
15121;DHT22;7661;48.904;9.414;2023-06-22T07:17:29;24.70;99.90
15121;DHT22;7661;48.904;9.414;2023-06-22T07:19:56;24.90;99.90
15121;DHT22;7661;48.904;9.414;2023-06-22T07:22:23;25.00;99.90
15121;DHT22;7661;48.904;9.414;2023-06-22T07:24:52;25.20;99.90
15121;DHT22;7661;48.904;9.414;2023-06-22T07:27:19;25.20;99.90
15121;DHT22;7661;48.904;9.414;2023-06-22T07:29:47;25.40;99.90
15121;DHT22;7661;48.904;9.414;2023-06-22T07:32:14;25.50;99.90
15121;DHT22;7661;48.904;9.414;2023-06-22T07:34:41;25.60;99.90
15121;DHT22;7661;48.904;9.414;2023-06-22T07:37:09;25.70;99.90
15121;DHT22;7661;48.904;9.414;2023-06-22T07:39:36;25.90;99.90
15121;DHT22;7661;48.904;9.414;2023-06-22T07:42:05;26.00;99.90
15121;DHT22;7661;48.904;9.414;2023-06-22T07:44:32;26.20;99.90
15121;DHT22;7661;48.904;9.414;2023-06-22T07:46:59;26.30;99.90
15121;DHT22;7661;48.904;9.414;2023-06-22T07:49:28;26.40;99.90
15121;DHT22;7661;48.904;9.414;2023-06-22T07:51:55;26.60;99.90
15121;DHT22;7661;48.904;9.414;2023-06-22T07:54:22;26.70;99.90
15121;DHT22;7661;48.904;9.414;2023-06-22T07:56:49;26.80;99.90
15121;DHT22;7661;48.904;9.414;2023-06-22T07:59:18;27.00;99.90
15121;DHT22;7661;48.904;9.414;2023-06-22T08:01:45;27.10;99.90
15121;DHT22;7661;48.904;9.414;2023-06-22T08:04:14;27.10;99.90
15121;DHT22;7661;48.904;9.414;2023-06-22T08:06:42;27.30;99.90
15121;DHT22;7661;48.904;9.414;2023-06-22T08:09:09;27.40;99.90
15121;DHT22;7661;48.904;9.414;2023-06-22T08:11:36;27.60;99.90
15121;DHT22;7661;48.904;9.414;2023-06-22T08:14:04;27.70;99.90
15121;DHT22;7661;48.904;9.414;2023-06-22T08:16:32;27.70;99.90
15121;DHT22;7661;48.904;9.414;2023-06-22T08:18:59;27.90;99.90
15121;DHT22;7661;48.904;9.414;2023-06-22T08:21:27;28.10;99.90
15121;DHT22;7661;48.904;9.414;2023-06-22T08:23:54;28.30;99.90
15121;DHT22;7661;48.904;9.414;2023-06-22T08:26:21;28.50;99.90
15121;DHT22;7661;48.904;9.414;2023-06-22T08:28:49;28.70;99.90
15121;DHT22;7661;48.904;9.414;2023-06-22T08:31:16;28.90;99.90
15121;DHT22;7661;48.904;9.414;2023-06-22T08:33:45;28.80;99.90
15121;DHT22;7661;48.904;9.414;2023-06-22T08:36:12;28.80;99.90
15121;DHT22;7661;48.904;9.414;2023-06-22T08:38:40;29.10;99.90
15121;DHT22;7661;48.904;9.414;2023-06-22T08:41:07;29.40;99.90
15121;DHT22;7661;48.904;9.414;2023-06-22T08:43:34;29.80;99.90
15121;DHT22;7661;48.904;9.414;2023-06-22T08:46:01;30.20;99.90
15121;DHT22;7661;48.904;9.414;2023-06-22T08:48:29;30.40;99.90
15121;DHT22;7661;48.904;9.414;2023-06-22T08:50:57;30.30;99.90
15121;DHT22;7661;48.904;9.414;2023-06-22T08:53:24;30.30;99.90
15121;DHT22;7661;48.904;9.414;2023-06-22T08:55:51;30.30;99.90
15121;DHT22;7661;48.904;9.414;2023-06-22T08:58:19;30.40;99.90
15121;DHT22;7661;48.904;9.414;2023-06-22T09:00:47;30.60;99.90
15121;DHT22;7661;48.904;9.414;2023-06-22T09:03:14;30.80;99.90
15121;DHT22;7661;48.904;9.414;2023-06-22T09:05:41;30.60;99.90
15121;DHT22;7661;48.904;9.414;2023-06-22T09:08:11;30.60;99.90
15121;DHT22;7661;48.904;9.414;2023-06-22T09:10:38;30.70;99.90
15121;DHT22;7661;48.904;9.414;2023-06-22T09:13:05;30.50;99.90
15121;DHT22;7661;48.904;9.414;2023-06-22T09:15:33;30.30;99.90
15121;DHT22;7661;48.904;9.414;2023-06-22T09:18:00;30.20;99.90
15121;DHT22;7661;48.904;9.414;2023-06-22T09:20:27;30.30;99.90
15121;DHT22;7661;48.904;9.414;2023-06-22T09:22:55;30.50;99.90
15121;DHT22;7661;48.904;9.414;2023-06-22T09:25:23;30.80;99.90
15121;DHT22;7661;48.904;9.414;2023-06-22T09:27:51;31.00;99.90
15121;DHT22;7661;48.904;9.414;2023-06-22T09:30:18;31.10;99.90
15121;DHT22;7661;48.904;9.414;2023-06-22T09:32:45;30.90;99.90
15121;DHT22;7661;48.904;9.414;2023-06-22T09:35:12;30.80;99.90
15121;DHT22;7661;48.904;9.414;2023-06-22T09:37:39;30.70;99.90
15121;DHT22;7661;48.904;9.414;2023-06-22T09:40:07;30.80;99.90
15121;DHT22;7661;48.904;9.414;2023-06-22T09:42:38;30.90;99.90
15121;DHT22;7661;48.904;9.414;2023-06-22T09:45:05;31.30;99.90
15121;DHT22;7661;48.904;9.414;2023-06-22T09:47:32;31.80;99.90
15121;DHT22;7661;48.904;9.414;2023-06-22T09:49:59;32.30;99.90
15121;DHT22;7661;48.904;9.414;2023-06-22T09:52:26;32.80;99.90
15121;DHT22;7661;48.904;9.414;2023-06-22T09:54:53;33.10;99.90
15121;DHT22;7661;48.904;9.414;2023-06-22T09:57:20;33.30;98.80
15121;DHT22;7661;48.904;9.414;2023-06-22T09:59:48;33.60;99.90
15121;DHT22;7661;48.904;9.414;2023-06-22T10:02:15;34.00;99.00
15121;DHT22;7661;48.904;9.414;2023-06-22T10:04:42;34.60;98.20
15121;DHT22;7661;48.904;9.414;2023-06-22T10:07:09;34.80;97.70
15121;DHT22;7661;48.904;9.414;2023-06-22T10:09:36;35.20;96.60
15121;DHT22;7661;48.904;9.414;2023-06-22T10:12:03;35.40;95.80
15121;DHT22;7661;48.904;9.414;2023-06-22T10:14:30;35.60;95.50
15121;DHT22;7661;48.904;9.414;2023-06-22T10:16:58;35.90;94.70
15121;DHT22;7661;48.904;9.414;2023-06-22T10:19:25;36.10;94.30
15121;DHT22;7661;48.904;9.414;2023-06-22T10:21:52;36.50;92.90
15121;DHT22;7661;48.904;9.414;2023-06-22T10:24:19;36.80;92.40
15121;DHT22;7661;48.904;9.414;2023-06-22T10:26:46;36.80;89.30
15121;DHT22;7661;48.904;9.414;2023-06-22T10:29:13;36.30;90.90
15121;DHT22;7661;48.904;9.414;2023-06-22T10:31:40;35.90;90.50
15121;DHT22;7661;48.904;9.414;2023-06-22T10:34:08;35.60;90.90
15121;DHT22;7661;48.904;9.414;2023-06-22T10:36:35;35.30;91.60
15121;DHT22;7661;48.904;9.414;2023-06-22T10:39:01;35.20;92.40
15121;DHT22;7661;48.904;9.414;2023-06-22T10:41:28;35.30;92.80
15121;DHT22;7661;48.904;9.414;2023-06-22T10:43:56;35.60;92.10
15121;DHT22;7661;48.904;9.414;2023-06-22T10:46:24;35.70;91.70
15121;DHT22;7661;48.904;9.414;2023-06-22T10:48:51;35.90;91.50
15121;DHT22;7661;48.904;9.414;2023-06-22T10:51:21;36.10;91.00
15121;DHT22;7661;48.904;9.414;2023-06-22T10:53:48;36.10;90.80
15121;DHT22;7661;48.904;9.414;2023-06-22T10:56:16;36.20;90.20
15121;DHT22;7661;48.904;9.414;2023-06-22T10:58:44;36.30;90.10
15121;DHT22;7661;48.904;9.414;2023-06-22T11:01:12;36.40;90.00
15121;DHT22;7661;48.904;9.414;2023-06-22T11:03:38;36.10;88.90
15121;DHT22;7661;48.904;9.414;2023-06-22T11:06:05;35.90;90.10
15121;DHT22;7661;48.904;9.414;2023-06-22T11:08:33;35.80;89.90
15121;DHT22;7661;48.904;9.414;2023-06-22T11:11:00;35.60;90.60
15121;DHT22;7661;48.904;9.414;2023-06-22T11:13:27;35.40;90.60
15121;DHT22;7661;48.904;9.414;2023-06-22T11:15:54;35.30;88.90
15121;DHT22;7661;48.904;9.414;2023-06-22T11:18:21;35.20;89.90
15121;DHT22;7661;48.904;9.414;2023-06-22T11:20:48;35.20;90.50
15121;DHT22;7661;48.904;9.414;2023-06-22T11:23:15;35.20;90.10
15121;DHT22;7661;48.904;9.414;2023-06-22T11:25:43;35.10;89.70
15121;DHT22;7661;48.904;9.414;2023-06-22T11:28:11;35.00;87.20
15121;DHT22;7661;48.904;9.414;2023-06-22T11:30:38;35.10;90.40
15121;DHT22;7661;48.904;9.414;2023-06-22T11:33:05;35.20;86.90
15121;DHT22;7661;48.904;9.414;2023-06-22T11:35:32;35.10;90.30
15121;DHT22;7661;48.904;9.414;2023-06-22T11:37:59;35.00;90.30
15121;DHT22;7661;48.904;9.414;2023-06-22T11:40:26;35.10;88.10
15121;DHT22;7661;48.904;9.414;2023-06-22T11:42:54;35.20;89.50
15121;DHT22;7661;48.904;9.414;2023-06-22T11:45:21;35.30;87.20
15121;DHT22;7661;48.904;9.414;2023-06-22T11:47:47;35.50;84.00
15121;DHT22;7661;48.904;9.414;2023-06-22T11:50:14;35.40;83.40
15121;DHT22;7661;48.904;9.414;2023-06-22T11:52:41;35.40;87.20
15121;DHT22;7661;48.904;9.414;2023-06-22T11:55:08;35.40;84.50
15121;DHT22;7661;48.904;9.414;2023-06-22T11:57:37;35.60;80.50
15121;DHT22;7661;48.904;9.414;2023-06-22T12:00:07;35.50;78.90
15121;DHT22;7661;48.904;9.414;2023-06-22T12:02:41;35.30;78.70
15121;DHT22;7661;48.904;9.414;2023-06-22T12:05:08;35.20;79.10
15121;DHT22;7661;48.904;9.414;2023-06-22T12:07:35;35.00;80.10
15121;DHT22;7661;48.904;9.414;2023-06-22T12:10:03;34.80;78.40
15121;DHT22;7661;48.904;9.414;2023-06-22T12:12:30;34.60;79.50
15121;DHT22;7661;48.904;9.414;2023-06-22T12:14:57;34.40;80.80
15121;DHT22;7661;48.904;9.414;2023-06-22T12:17:30;34.40;78.60
15121;DHT22;7661;48.904;9.414;2023-06-22T12:19:56;34.30;81.40
15121;DHT22;7661;48.904;9.414;2023-06-22T12:22:23;34.10;82.60
15121;DHT22;7661;48.904;9.414;2023-06-22T12:24:50;33.90;81.90
15121;DHT22;7661;48.904;9.414;2023-06-22T12:27:17;33.70;83.50
15121;DHT22;7661;48.904;9.414;2023-06-22T12:29:45;33.60;82.90
15121;DHT22;7661;48.904;9.414;2023-06-22T12:32:13;33.50;82.70
15121;DHT22;7661;48.904;9.414;2023-06-22T12:34:42;33.40;84.30
15121;DHT22;7661;48.904;9.414;2023-06-22T12:37:09;33.40;84.40
15121;DHT22;7661;48.904;9.414;2023-06-22T12:39:36;33.20;86.00
15121;DHT22;7661;48.904;9.414;2023-06-22T12:42:03;33.10;88.90
15121;DHT22;7661;48.904;9.414;2023-06-22T12:44:31;33.00;89.10
15121;DHT22;7661;48.904;9.414;2023-06-22T12:46:58;33.00;90.80
15121;DHT22;7661;48.904;9.414;2023-06-22T12:49:25;33.10;91.10
15121;DHT22;7661;48.904;9.414;2023-06-22T12:51:53;33.00;91.40
15121;DHT22;7661;48.904;9.414;2023-06-22T12:54:20;33.00;92.30
15121;DHT22;7661;48.904;9.414;2023-06-22T12:56:47;32.80;92.80
15121;DHT22;7661;48.904;9.414;2023-06-22T12:59:14;32.80;93.90
15121;DHT22;7661;48.904;9.414;2023-06-22T13:01:42;32.70;94.90
15121;DHT22;7661;48.904;9.414;2023-06-22T13:04:11;32.60;95.00
15121;DHT22;7661;48.904;9.414;2023-06-22T13:06:40;32.50;94.90
15121;DHT22;7661;48.904;9.414;2023-06-22T13:09:09;32.40;95.00
15121;DHT22;7661;48.904;9.414;2023-06-22T13:11:36;32.30;94.60
15121;DHT22;7661;48.904;9.414;2023-06-22T13:14:03;32.20;94.90
15121;DHT22;7661;48.904;9.414;2023-06-22T13:16:30;32.10;95.50
15121;DHT22;7661;48.904;9.414;2023-06-22T13:18:57;32.10;95.60
15121;DHT22;7661;48.904;9.414;2023-06-22T13:21:24;32.20;96.10
15121;DHT22;7661;48.904;9.414;2023-06-22T13:23:51;32.20;96.30
15121;DHT22;7661;48.904;9.414;2023-06-22T13:26:20;32.20;95.50
15121;DHT22;7661;48.904;9.414;2023-06-22T13:28:47;32.20;96.10
15121;DHT22;7661;48.904;9.414;2023-06-22T13:31:14;32.30;96.40
15121;DHT22;7661;48.904;9.414;2023-06-22T13:33:41;32.40;96.60
15121;DHT22;7661;48.904;9.414;2023-06-22T13:36:09;32.50;97.00
15121;DHT22;7661;48.904;9.414;2023-06-22T13:38:36;32.70;97.60
15121;DHT22;7661;48.904;9.414;2023-06-22T13:41:04;33.00;97.30
15121;DHT22;7661;48.904;9.414;2023-06-22T13:43:32;33.40;97.30
15121;DHT22;7661;48.904;9.414;2023-06-22T13:45:59;33.70;97.00
15121;DHT22;7661;48.904;9.414;2023-06-22T13:48:26;33.80;96.30
15121;DHT22;7661;48.904;9.414;2023-06-22T13:50:54;33.90;96.00
15121;DHT22;7661;48.904;9.414;2023-06-22T13:53:21;34.00;95.80
15121;DHT22;7661;48.904;9.414;2023-06-22T13:55:48;34.00;94.70
15121;DHT22;7661;48.904;9.414;2023-06-22T13:58:14;33.90;94.90
15121;DHT22;7661;48.904;9.414;2023-06-22T14:00:43;33.90;95.10
15121;DHT22;7661;48.904;9.414;2023-06-22T14:03:10;34.00;96.00
15121;DHT22;7661;48.904;9.414;2023-06-22T14:05:37;33.80;96.30
15121;DHT22;7661;48.904;9.414;2023-06-22T14:08:04;33.80;95.80
15121;DHT22;7661;48.904;9.414;2023-06-22T14:10:31;33.80;94.50
15121;DHT22;7661;48.904;9.414;2023-06-22T14:12:57;33.80;94.80
15121;DHT22;7661;48.904;9.414;2023-06-22T14:15:25;33.80;95.60
15121;DHT22;7661;48.904;9.414;2023-06-22T14:17:53;33.80;95.40
15121;DHT22;7661;48.904;9.414;2023-06-22T14:20:20;34.00;95.20
15121;DHT22;7661;48.904;9.414;2023-06-22T14:22:47;34.20;95.20
15121;DHT22;7661;48.904;9.414;2023-06-22T14:25:14;34.40;94.90
15121;DHT22;7661;48.904;9.414;2023-06-22T14:27:41;34.80;94.70
15121;DHT22;7661;48.904;9.414;2023-06-22T14:30:10;35.10;93.80
15121;DHT22;7661;48.904;9.414;2023-06-22T14:32:37;35.30;94.40
15121;DHT22;7661;48.904;9.414;2023-06-22T14:35:07;35.70;93.50
15121;DHT22;7661;48.904;9.414;2023-06-22T14:37:33;36.00;92.90
15121;DHT22;7661;48.904;9.414;2023-06-22T14:40:00;36.30;91.30
15121;DHT22;7661;48.904;9.414;2023-06-22T14:42:27;36.40;91.30
15121;DHT22;7661;48.904;9.414;2023-06-22T14:44:55;36.30;91.10
15121;DHT22;7661;48.904;9.414;2023-06-22T14:47:22;36.10;90.20
15121;DHT22;7661;48.904;9.414;2023-06-22T14:49:49;35.80;90.50
15121;DHT22;7661;48.904;9.414;2023-06-22T14:52:17;35.80;91.70
15121;DHT22;7661;48.904;9.414;2023-06-22T14:54:44;35.90;91.40
15121;DHT22;7661;48.904;9.414;2023-06-22T14:57:11;36.10;90.50
15121;DHT22;7661;48.904;9.414;2023-06-22T14:59:38;36.30;88.20
15121;DHT22;7661;48.904;9.414;2023-06-22T15:02:05;36.40;81.20
15121;DHT22;7661;48.904;9.414;2023-06-22T15:04:31;36.20;81.30
15121;DHT22;7661;48.904;9.414;2023-06-22T15:07:00;36.30;83.30
15121;DHT22;7661;48.904;9.414;2023-06-22T15:09:28;36.50;84.10
15121;DHT22;7661;48.904;9.414;2023-06-22T15:11:55;36.60;79.40
15121;DHT22;7661;48.904;9.414;2023-06-22T15:14:23;37.00;82.50
15121;DHT22;7661;48.904;9.414;2023-06-22T15:16:50;37.30;79.00
15121;DHT22;7661;48.904;9.414;2023-06-22T15:19:17;37.10;75.80
15121;DHT22;7661;48.904;9.414;2023-06-22T15:21:43;36.60;76.10
15121;DHT22;7661;48.904;9.414;2023-06-22T15:24:11;36.30;74.00
15121;DHT22;7661;48.904;9.414;2023-06-22T15:26:39;35.70;73.40
15121;DHT22;7661;48.904;9.414;2023-06-22T15:29:06;35.20;76.40
15121;DHT22;7661;48.904;9.414;2023-06-22T15:31:33;35.00;75.90
15121;DHT22;7661;48.904;9.414;2023-06-22T15:33:59;35.00;76.60
15121;DHT22;7661;48.904;9.414;2023-06-22T15:36:28;35.00;76.30
15121;DHT22;7661;48.904;9.414;2023-06-22T15:38:55;34.90;75.30
15121;DHT22;7661;48.904;9.414;2023-06-22T15:41:22;34.70;76.50
15121;DHT22;7661;48.904;9.414;2023-06-22T15:43:50;34.70;75.80
15121;DHT22;7661;48.904;9.414;2023-06-22T15:46:17;34.40;75.90
15121;DHT22;7661;48.904;9.414;2023-06-22T15:48:44;34.30;73.10